createdAt,value
2023-03-18T00:02:25.251Z,1.83
2023-03-18T00:04:53.579Z,1.94
2023-03-18T00:07:22.662Z,1.93
2023-03-18T00:09:52.809Z,1.92
2023-03-18T00:12:20.539Z,1.84
2023-03-18T00:14:48.392Z,1.88
2023-03-18T00:17:16.055Z,1.84
2023-03-18T00:19:43.761Z,1.82
2023-03-18T00:22:11.693Z,1.85
2023-03-18T00:24:40.938Z,1.87
2023-03-18T00:27:09.651Z,1.96
2023-03-18T00:29:37.678Z,2.03
2023-03-18T00:32:06.959Z,2.09
2023-03-18T00:34:34.752Z,2.22
2023-03-18T00:37:02.432Z,2.19
2023-03-18T00:39:32.991Z,2.40
2023-03-18T00:42:10.528Z,2.54
2023-03-18T00:44:38.377Z,2.64
2023-03-18T00:47:06.372Z,2.97
2023-03-18T00:49:34.363Z,3.07
2023-03-18T00:52:02.023Z,3.03
2023-03-18T00:54:30.340Z,3.34
2023-03-18T00:56:58.010Z,3.40
2023-03-18T00:59:27.397Z,3.62
2023-03-18T01:01:55.116Z,3.92
2023-03-18T01:04:22.784Z,3.94
2023-03-18T01:06:50.444Z,3.84
2023-03-18T01:09:18.091Z,3.92
2023-03-18T01:11:45.835Z,3.95
2023-03-18T01:14:13.534Z,3.60
2023-03-18T01:16:43.240Z,3.42
2023-03-18T01:19:11.107Z,3.27
2023-03-18T01:21:38.866Z,3.08
2023-03-18T01:24:07.167Z,3.05
2023-03-18T01:26:38.592Z,3.11
2023-03-18T01:29:06.249Z,3.26
2023-03-18T01:31:35.710Z,3.26
2023-03-18T01:34:05.684Z,3.53
2023-03-18T01:36:33.616Z,3.58
2023-03-18T01:39:01.320Z,3.68
2023-03-18T01:41:29.072Z,4.07
2023-03-18T01:43:59.795Z,4.32
2023-03-18T01:46:34.895Z,4.66
2023-03-18T01:49:07.446Z,4.77
2023-03-18T01:51:36.467Z,4.82
2023-03-18T01:54:07.597Z,4.92
2023-03-18T01:56:38.340Z,4.99
2023-03-18T01:59:07.856Z,4.97
2023-03-18T02:01:39.898Z,5.03
2023-03-18T02:04:11.165Z,5.22
2023-03-18T02:06:39.426Z,5.37
2023-03-18T02:09:07.873Z,5.44
2023-03-18T02:11:39.234Z,5.61
2023-03-18T02:14:10.615Z,5.66
2023-03-18T02:16:44.466Z,5.67
2023-03-18T02:19:37.731Z,5.72
2023-03-18T02:22:13.953Z,5.76
2023-03-18T02:24:51.552Z,5.91
2023-03-18T02:27:21.674Z,5.94
2023-03-18T02:29:50.345Z,5.98
2023-03-18T02:32:20.174Z,5.97
2023-03-18T02:34:49.291Z,5.91
2023-03-18T02:37:16.956Z,5.87
2023-03-18T02:39:44.611Z,5.84
2023-03-18T02:42:14.086Z,5.72
2023-03-18T02:44:46.769Z,5.41
2023-03-18T02:47:18.079Z,5.21
2023-03-18T02:49:46.098Z,4.92
2023-03-18T02:52:13.869Z,4.73
2023-03-18T02:54:42.003Z,4.54
2023-03-18T02:57:09.905Z,4.29
2023-03-18T02:59:37.610Z,4.16
2023-03-18T03:02:07.111Z,4.01
2023-03-18T03:04:34.920Z,3.99
2023-03-18T03:07:02.613Z,4.01
2023-03-18T03:09:31.007Z,4.03
2023-03-18T03:11:58.722Z,4.03
2023-03-18T03:14:26.473Z,3.93
2023-03-18T03:16:54.112Z,3.90
2023-03-18T03:19:25.113Z,3.86
2023-03-18T03:21:52.817Z,3.82
2023-03-18T03:24:20.493Z,3.81
2023-03-18T03:26:48.617Z,3.88
2023-03-18T03:29:16.319Z,3.89
2023-03-18T03:31:44.016Z,3.96
2023-03-18T03:34:11.878Z,3.89
2023-03-18T03:36:41.041Z,3.87
2023-03-18T03:39:08.699Z,3.79
2023-03-18T03:41:36.381Z,3.74
2023-03-18T03:44:04.136Z,3.72
2023-03-18T03:46:32.311Z,3.79
2023-03-18T03:48:59.964Z,4.09
2023-03-18T03:51:29.440Z,4.17
2023-03-18T03:53:58.981Z,4.21
2023-03-18T03:56:27.124Z,4.25
2023-03-18T03:58:54.816Z,4.36
2023-03-18T04:01:22.462Z,4.48
2023-03-18T04:03:50.275Z,4.71
2023-03-18T04:06:17.986Z,4.87
2023-03-18T04:08:46.227Z,5.05
2023-03-18T04:11:15.297Z,5.26
2023-03-18T04:13:42.961Z,5.43
2023-03-18T04:16:10.714Z,5.53
2023-03-18T04:18:38.447Z,5.60
2023-03-18T04:21:08.785Z,5.63
2023-03-18T04:23:36.552Z,5.64
2023-03-18T04:26:05.353Z,5.75
2023-03-18T04:28:34.442Z,5.81
2023-03-18T04:31:02.178Z,5.82
2023-03-18T04:33:29.876Z,5.79
2023-03-18T04:35:58.157Z,5.77
2023-03-18T04:38:25.879Z,5.75
2023-03-18T04:40:53.577Z,5.72
2023-03-18T04:43:21.483Z,5.73
2023-03-18T04:45:50.528Z,5.75
2023-03-18T04:48:18.255Z,5.75
2023-03-18T04:50:46.140Z,5.82
2023-03-18T04:53:13.791Z,5.90
2023-03-18T04:55:41.739Z,5.88
2023-03-18T04:58:09.416Z,5.90
2023-03-18T05:00:37.415Z,5.91
2023-03-18T05:03:07.400Z,5.95
2023-03-18T05:05:37.329Z,5.97
2023-03-18T05:08:07.520Z,6.01
2023-03-18T05:10:35.227Z,6.05
2023-03-18T05:13:03.637Z,6.08
2023-03-18T05:15:31.839Z,6.09
2023-03-18T05:18:00.267Z,6.13
2023-03-18T05:20:29.583Z,6.15
2023-03-18T05:22:58.164Z,6.17
2023-03-18T05:25:26.114Z,6.21
2023-03-18T05:27:54.466Z,6.29
2023-03-18T05:30:22.568Z,6.31
2023-03-18T05:32:50.482Z,6.32
2023-03-18T05:35:19.211Z,6.34
2023-03-18T05:37:48.290Z,6.32
2023-03-18T05:40:16.424Z,6.31
2023-03-18T05:42:55.283Z,6.31
2023-03-18T05:45:23.374Z,6.25
2023-03-18T05:47:51.801Z,6.26
2023-03-18T05:50:31.760Z,6.23
2023-03-18T05:53:01.127Z,6.21
2023-03-18T05:55:29.552Z,6.23
2023-03-18T05:57:57.805Z,6.26
2023-03-18T06:00:26.222Z,6.36
2023-03-18T06:02:54.007Z,6.38
2023-03-18T06:05:22.412Z,6.45
2023-03-18T06:07:50.204Z,6.50
2023-03-18T06:10:19.542Z,6.56
2023-03-18T06:12:47.273Z,6.60
2023-03-18T06:15:17.364Z,6.64
2023-03-18T06:17:45.068Z,6.68
2023-03-18T06:20:14.190Z,6.72
2023-03-18T06:22:43.718Z,6.71
2023-03-18T06:25:12.003Z,6.70
2023-03-18T06:27:41.252Z,6.74
2023-03-18T06:30:10.566Z,6.79
2023-03-18T06:32:38.950Z,6.83
2023-03-18T06:35:07.742Z,6.89
2023-03-18T06:37:35.686Z,6.98
2023-03-18T06:40:03.856Z,7.00
2023-03-18T06:42:31.696Z,7.08
2023-03-18T06:45:01.466Z,7.19
2023-03-18T06:47:30.940Z,7.32
2023-03-18T06:49:58.601Z,7.38
2023-03-18T06:52:27.491Z,7.46
2023-03-18T06:54:55.180Z,7.56
2023-03-18T06:57:22.895Z,7.73
2023-03-18T06:59:50.809Z,7.79
2023-03-18T07:02:19.882Z,7.88
2023-03-18T07:04:48.123Z,7.95
2023-03-18T07:07:16.640Z,8.03
2023-03-18T07:09:44.854Z,8.16
2023-03-18T07:12:13.759Z,8.25
2023-03-18T07:14:42.322Z,8.46
2023-03-18T07:17:11.361Z,8.57
2023-03-18T07:19:40.441Z,8.71
2023-03-18T07:22:08.501Z,8.85
2023-03-18T07:24:36.240Z,9.01
2023-03-18T07:27:04.377Z,9.09
2023-03-18T07:29:32.119Z,9.26
2023-03-18T07:31:59.814Z,9.34
2023-03-18T07:34:27.521Z,9.49
2023-03-18T07:36:56.588Z,9.52
2023-03-18T07:39:24.474Z,9.67
2023-03-18T07:41:54.063Z,9.85
2023-03-18T07:44:21.748Z,9.99
2023-03-18T07:46:49.523Z,10.20
2023-03-18T07:49:17.241Z,10.33
2023-03-18T07:51:44.977Z,10.44
2023-03-18T07:54:14.237Z,10.61
2023-03-18T07:56:41.970Z,10.73
2023-03-18T07:59:10.286Z,10.88
2023-03-18T08:01:39.058Z,11.05
2023-03-18T08:04:06.952Z,11.21
2023-03-18T08:06:35.687Z,11.27
2023-03-18T08:09:03.794Z,11.51
2023-03-18T08:11:33.823Z,11.66
2023-03-18T08:14:01.816Z,11.72
2023-03-18T08:16:29.768Z,11.83
2023-03-18T08:18:57.543Z,11.96
2023-03-18T08:21:25.514Z,12.06
2023-03-18T08:23:53.170Z,12.22
2023-03-18T08:26:21.490Z,12.37
2023-03-18T08:28:50.564Z,12.48
2023-03-18T08:31:18.760Z,12.47
2023-03-18T08:33:47.535Z,12.51
2023-03-18T08:36:15.306Z,12.66
2023-03-18T08:38:43.255Z,12.77
2023-03-18T08:41:11.116Z,12.87
2023-03-18T08:43:39.213Z,12.81
2023-03-18T08:46:08.597Z,12.94
2023-03-18T08:48:36.642Z,13.15
2023-03-18T08:51:05.145Z,13.29
2023-03-18T08:53:32.829Z,13.39
2023-03-18T08:56:02.853Z,13.45
2023-03-18T08:58:30.693Z,13.42
2023-03-18T09:00:58.654Z,13.49
2023-03-18T09:03:28.662Z,13.67
2023-03-18T09:05:56.415Z,13.85
2023-03-18T09:08:24.486Z,14.02
2023-03-18T09:10:53.610Z,14.10
2023-03-18T09:13:22.071Z,14.21
2023-03-18T09:15:50.423Z,14.32
2023-03-18T09:18:20.210Z,14.28
2023-03-18T09:20:50.200Z,14.41
2023-03-18T09:23:18.595Z,14.46
2023-03-18T09:25:47.002Z,14.45
2023-03-18T09:28:15.187Z,14.56
2023-03-18T09:30:43.564Z,14.76
2023-03-18T09:33:11.781Z,14.94
2023-03-18T09:35:39.902Z,15.04
2023-03-18T09:38:10.184Z,15.07
2023-03-18T09:40:45.695Z,15.06
2023-03-18T09:43:23.216Z,15.03
2023-03-18T09:46:02.194Z,15.16
2023-03-18T09:48:55.929Z,15.19
2023-03-18T09:51:37.286Z,15.12
2023-03-18T09:54:13.571Z,15.22
2023-03-18T09:56:41.687Z,15.26
2023-03-18T09:59:19.185Z,15.48
2023-03-18T10:01:49.474Z,15.73
2023-03-18T10:04:21.712Z,16.10
2023-03-18T10:06:52.602Z,16.31
2023-03-18T10:09:28.385Z,16.54
2023-03-18T10:12:07.377Z,16.87
2023-03-18T10:14:42.421Z,17.17
2023-03-18T10:17:18.881Z,17.51
2023-03-18T10:19:50.060Z,17.59
2023-03-18T10:22:33.842Z,17.91
2023-03-18T10:25:12.869Z,18.15
2023-03-18T10:27:50.423Z,18.47
2023-03-18T10:30:31.552Z,18.78
2023-03-18T10:33:08.658Z,18.82
2023-03-18T10:35:42.781Z,19.02
2023-03-18T10:38:19.396Z,19.10
2023-03-18T10:40:49.367Z,19.11
2023-03-18T10:43:22.104Z,19.10
2023-03-18T10:45:53.372Z,19.30
2023-03-18T10:48:27.511Z,19.21
2023-03-18T10:51:08.229Z,19.78
2023-03-18T10:53:41.304Z,20.23
2023-03-18T10:56:11.800Z,20.46
2023-03-18T10:58:40.608Z,20.58
2023-03-18T11:01:10.343Z,20.79
2023-03-18T11:03:44.100Z,20.76
2023-03-18T11:06:18.830Z,21.13
2023-03-18T11:08:48.810Z,21.18
2023-03-18T11:11:29.096Z,21.01
2023-03-18T11:13:58.426Z,21.14
2023-03-18T11:16:34.593Z,20.98
2023-03-18T11:19:09.565Z,20.86
2023-03-18T11:21:39.087Z,21.44
2023-03-18T11:24:34.526Z,21.58
2023-03-18T11:27:04.324Z,21.72
2023-03-18T11:29:34.602Z,21.17
2023-03-18T11:32:03.306Z,21.36
2023-03-18T11:34:32.872Z,21.80
2023-03-18T11:37:04.378Z,21.96
2023-03-18T11:39:36.670Z,22.07
2023-03-18T11:42:18.812Z,22.12
2023-03-18T11:44:46.598Z,21.83
2023-03-18T11:47:19.099Z,21.99
2023-03-18T11:49:46.755Z,21.65
2023-03-18T11:52:32.903Z,21.67
2023-03-18T11:55:23.471Z,21.42
2023-03-18T11:58:17.909Z,20.78
2023-03-18T12:00:55.295Z,21.21
2023-03-18T12:03:41.919Z,21.53
2023-03-18T12:06:20.222Z,21.72
2023-03-18T12:08:56.979Z,21.98
2023-03-18T12:11:35.968Z,21.97
2023-03-18T12:14:13.789Z,22.23
2023-03-18T12:16:52.383Z,21.61
2023-03-18T12:19:34.273Z,22.14
2023-03-18T12:22:24.602Z,21.95
2023-03-18T12:25:08.520Z,21.63
2023-03-18T12:27:45.114Z,21.09
2023-03-18T12:30:25.069Z,21.54
2023-03-18T12:33:04.031Z,21.94
2023-03-18T12:35:45.269Z,22.23
2023-03-18T12:38:39.448Z,21.98
2023-03-18T12:41:10.896Z,21.89
2023-03-18T12:43:52.598Z,22.05
2023-03-18T12:46:28.775Z,22.10
2023-03-18T12:49:03.751Z,21.13
2023-03-18T12:51:45.199Z,21.10
2023-03-18T12:54:22.146Z,21.40
2023-03-18T12:56:53.620Z,20.96
2023-03-18T12:59:29.200Z,21.25
2023-03-18T13:02:20.614Z,21.42
2023-03-18T13:04:55.435Z,20.97
2023-03-18T13:07:29.912Z,21.24
2023-03-18T13:10:04.191Z,20.97
2023-03-18T13:12:36.931Z,20.76
2023-03-18T13:15:13.979Z,20.79
2023-03-18T13:17:44.896Z,20.60
2023-03-18T13:20:16.114Z,20.88
2023-03-18T13:23:10.784Z,20.59
2023-03-18T13:25:46.090Z,20.66
2023-03-18T13:28:34.137Z,20.41
2023-03-18T13:31:11.734Z,20.75
2023-03-18T13:34:11.943Z,20.77
2023-03-18T13:37:03.806Z,20.89
2023-03-18T13:40:09.964Z,20.87
2023-03-18T13:42:39.706Z,20.99
2023-03-18T13:45:15.617Z,20.74
2023-03-18T13:47:44.360Z,20.85
2023-03-18T13:50:32.243Z,20.91
2023-03-18T13:53:02.963Z,21.05
2023-03-18T13:55:35.936Z,20.96
2023-03-18T13:58:19.709Z,20.84
2023-03-18T14:01:28.374Z,21.84
2023-03-18T14:04:00.657Z,22.82
2023-03-18T14:06:47.556Z,23.79
2023-03-18T14:09:33.813Z,25.86
2023-03-18T14:12:39.761Z,27.98
2023-03-18T14:15:45.573Z,28.37
2023-03-18T14:18:37.089Z,25.31
2023-03-18T14:21:08.738Z,23.98
2023-03-18T14:23:43.652Z,24.27
2023-03-18T14:26:24.194Z,24.18
2023-03-18T14:28:57.651Z,23.15
2023-03-18T14:31:50.321Z,22.19
2023-03-18T14:34:30.586Z,24.13
2023-03-18T14:37:21.454Z,23.35
2023-03-18T14:39:52.980Z,22.70
2023-03-18T14:42:41.973Z,22.16
2023-03-18T14:45:19.302Z,21.48
2023-03-18T14:47:50.611Z,21.77
2023-03-18T14:50:25.570Z,21.40
2023-03-18T14:52:56.650Z,20.69
2023-03-18T14:55:31.584Z,19.85
2023-03-18T14:58:01.146Z,19.62
2023-03-18T15:00:33.465Z,19.25
2023-03-18T15:03:03.390Z,19.04
2023-03-18T15:05:35.795Z,19.09
2023-03-18T15:08:08.901Z,19.12
2023-03-18T15:10:37.499Z,19.28
2023-03-18T15:13:08.575Z,19.45
2023-03-18T15:15:36.784Z,19.85
2023-03-18T15:18:18.508Z,19.77
2023-03-18T15:20:49.322Z,19.40
2023-03-18T15:23:19.500Z,19.08
2023-03-18T15:25:50.397Z,18.85
2023-03-18T15:28:23.700Z,18.76
2023-03-18T15:30:54.306Z,18.63
2023-03-18T15:33:24.296Z,18.61
2023-03-18T15:35:56.129Z,18.61
2023-03-18T15:38:29.001Z,18.58
2023-03-18T15:41:01.436Z,18.70
2023-03-18T15:43:40.155Z,18.61
2023-03-18T15:46:15.808Z,18.57
2023-03-18T15:48:47.786Z,18.36
2023-03-18T15:51:26.771Z,18.05
2023-03-18T15:53:58.687Z,17.77
2023-03-18T15:56:29.654Z,17.51
2023-03-18T15:59:08.850Z,17.25
2023-03-18T16:01:37.202Z,17.10
2023-03-18T16:04:10.136Z,17.01
2023-03-18T16:06:38.561Z,17.01
2023-03-18T16:09:15.712Z,16.95
2023-03-18T16:11:45.112Z,16.89
2023-03-18T16:14:17.352Z,16.88
2023-03-18T16:16:45.324Z,16.75
2023-03-18T16:19:22.870Z,16.65
2023-03-18T16:21:50.919Z,16.52
2023-03-18T16:24:18.686Z,16.33
2023-03-18T16:26:47.060Z,16.22
2023-03-18T16:29:18.692Z,16.11
2023-03-18T16:31:47.222Z,15.97
2023-03-18T16:34:21.666Z,15.88
2023-03-18T16:36:51.213Z,15.80
2023-03-18T16:39:21.033Z,15.79
2023-03-18T16:41:49.594Z,15.78
2023-03-18T16:44:21.161Z,15.75
2023-03-18T16:46:53.872Z,15.70
2023-03-18T16:49:24.930Z,15.76
2023-03-18T16:51:53.575Z,15.72
2023-03-18T16:54:23.787Z,15.66
2023-03-18T16:56:54.789Z,15.60
2023-03-18T16:59:24.850Z,15.43
2023-03-18T17:01:54.133Z,15.26
2023-03-18T17:04:26.021Z,15.04
2023-03-18T17:06:54.046Z,14.82
2023-03-18T17:09:23.091Z,14.57
2023-03-18T17:11:53.050Z,14.35
2023-03-18T17:14:34.383Z,14.11
2023-03-18T17:17:06.646Z,13.92
2023-03-18T17:19:35.194Z,13.73
2023-03-18T17:22:03.166Z,13.46
2023-03-18T17:24:30.913Z,13.19
2023-03-18T17:27:01.588Z,12.96
2023-03-18T17:29:32.539Z,12.72
2023-03-18T17:32:01.421Z,12.54
2023-03-18T17:34:29.194Z,12.39
2023-03-18T17:36:59.549Z,12.27
2023-03-18T17:39:27.270Z,12.08
2023-03-18T17:41:55.001Z,11.89
2023-03-18T17:44:29.897Z,11.69
2023-03-18T17:46:59.324Z,11.51
2023-03-18T17:49:28.525Z,11.30
2023-03-18T17:51:57.308Z,11.29
2023-03-18T17:54:27.279Z,11.21
2023-03-18T17:56:56.122Z,11.12
2023-03-18T17:59:23.929Z,11.05
2023-03-18T18:01:52.581Z,10.91
2023-03-18T18:04:24.717Z,10.77
2023-03-18T18:06:54.150Z,10.56
2023-03-18T18:09:22.118Z,10.41
2023-03-18T18:11:51.015Z,10.20
2023-03-18T18:14:21.804Z,10.08
2023-03-18T18:16:50.146Z,10.03
2023-03-18T18:19:19.448Z,9.93
2023-03-18T18:21:50.430Z,9.83
2023-03-18T18:24:24.219Z,9.71
2023-03-18T18:26:52.477Z,9.69
2023-03-18T18:29:21.654Z,9.54
2023-03-18T18:31:49.797Z,9.42
2023-03-18T18:34:18.179Z,9.36
2023-03-18T18:36:45.916Z,9.20
2023-03-18T18:39:15.250Z,9.16
2023-03-18T18:41:45.055Z,9.09
2023-03-18T18:44:13.010Z,9.06
2023-03-18T18:46:40.929Z,8.95
2023-03-18T18:49:18.392Z,8.86
2023-03-18T18:51:46.672Z,8.71
2023-03-18T18:54:16.075Z,8.63
2023-03-18T18:56:44.486Z,8.49
2023-03-18T18:59:24.722Z,8.40
2023-03-18T19:01:52.735Z,8.33
2023-03-18T19:04:21.794Z,8.23
2023-03-18T19:06:50.835Z,8.15
2023-03-18T19:09:21.868Z,7.99
2023-03-18T19:11:50.152Z,7.94
2023-03-18T19:14:20.524Z,7.85
2023-03-18T19:16:49.374Z,7.74
2023-03-18T19:19:19.455Z,7.63
2023-03-18T19:21:47.265Z,7.53
2023-03-18T19:24:36.706Z,7.48
2023-03-18T19:27:07.062Z,7.40
2023-03-18T19:29:34.966Z,7.29
2023-03-18T19:32:02.967Z,7.25
2023-03-18T19:34:32.108Z,7.26
2023-03-18T19:37:02.559Z,7.20
2023-03-18T19:39:30.263Z,7.18
2023-03-18T19:41:59.393Z,7.15
2023-03-18T19:44:27.857Z,7.11
2023-03-18T19:46:58.546Z,7.09
2023-03-18T19:49:28.416Z,7.03
2023-03-18T19:51:56.362Z,6.91
2023-03-18T19:54:28.670Z,6.88
2023-03-18T19:56:57.337Z,6.83
2023-03-18T19:59:33.492Z,6.71
2023-03-18T20:02:05.245Z,6.72
2023-03-18T20:04:33.151Z,6.69
2023-03-18T20:07:01.518Z,6.57
2023-03-18T20:09:29.743Z,6.50
2023-03-18T20:12:04.673Z,6.46
2023-03-18T20:14:37.938Z,6.39
2023-03-18T20:17:28.276Z,6.25
2023-03-18T20:19:56.025Z,6.13
2023-03-18T20:22:26.051Z,6.08
2023-03-18T20:24:54.283Z,5.98
2023-03-18T20:27:22.164Z,5.89
2023-03-18T20:29:51.404Z,5.87
2023-03-18T20:32:19.162Z,5.82
2023-03-18T20:34:47.110Z,5.78
2023-03-18T20:37:22.857Z,5.73
2023-03-18T20:39:51.680Z,5.75
2023-03-18T20:42:19.612Z,5.71
2023-03-18T20:44:47.332Z,5.68
2023-03-18T20:47:16.360Z,5.66
2023-03-18T20:49:45.726Z,5.62
2023-03-18T20:52:25.847Z,5.57
2023-03-18T20:54:53.842Z,5.49
2023-03-18T20:57:21.621Z,5.39
2023-03-18T20:59:49.696Z,5.33
2023-03-18T21:02:31.007Z,5.30
2023-03-18T21:04:59.999Z,5.27
2023-03-18T21:07:28.630Z,5.21
2023-03-18T21:09:56.407Z,5.23
2023-03-18T21:12:25.239Z,5.18
2023-03-18T21:14:53.282Z,5.17
2023-03-18T21:17:23.566Z,5.18
2023-03-18T21:19:54.252Z,5.10
2023-03-18T21:22:24.520Z,5.05
2023-03-18T21:24:52.301Z,5.07
2023-03-18T21:27:21.206Z,5.02
2023-03-18T21:29:49.912Z,4.96
2023-03-18T21:32:24.376Z,4.90
2023-03-18T21:34:54.594Z,4.88
2023-03-18T21:37:24.787Z,4.83
2023-03-18T21:39:53.126Z,4.85
2023-03-18T21:42:24.802Z,4.84
2023-03-18T21:44:53.435Z,4.82
2023-03-18T21:47:22.857Z,4.71
2023-03-18T21:49:51.511Z,4.69
2023-03-18T21:52:28.365Z,4.65
2023-03-18T21:54:59.938Z,4.60
2023-03-18T21:57:27.920Z,4.54
2023-03-18T21:59:55.813Z,4.48
2023-03-18T22:02:31.489Z,4.42
2023-03-18T22:05:01.227Z,4.45
2023-03-18T22:07:32.310Z,4.47
2023-03-18T22:10:00.680Z,4.47
2023-03-18T22:12:31.129Z,4.44
2023-03-18T22:14:59.337Z,4.39
2023-03-18T22:17:28.775Z,4.33
2023-03-18T22:19:58.214Z,4.27
2023-03-18T22:22:28.221Z,4.27
2023-03-18T22:24:57.257Z,4.32
2023-03-18T22:27:26.995Z,4.40
2023-03-18T22:29:56.656Z,4.44
2023-03-18T22:32:34.708Z,4.47
2023-03-18T22:35:02.721Z,4.47
2023-03-18T22:37:30.487Z,4.45
2023-03-18T22:40:01.018Z,4.47
2023-03-18T22:42:29.192Z,4.44
2023-03-18T22:44:57.190Z,4.39
2023-03-18T22:47:27.036Z,4.29
2023-03-18T22:49:54.825Z,4.24
2023-03-18T22:52:25.396Z,4.26
2023-03-18T23:00:05.106Z,4.18
2023-03-18T23:02:32.802Z,4.20
2023-03-18T23:05:00.498Z,4.22
2023-03-18T23:07:31.064Z,4.29
2023-03-18T23:10:00.635Z,4.31
2023-03-18T23:12:30.183Z,4.34
2023-03-18T23:14:58.069Z,4.37
2023-03-18T23:17:28.931Z,4.31
2023-03-18T23:19:57.049Z,4.29
2023-03-18T23:22:27.386Z,4.26
2023-03-18T23:24:55.616Z,4.26
2023-03-18T23:27:24.459Z,4.37
2023-03-18T23:29:52.229Z,4.34
2023-03-18T23:32:20.902Z,4.34
2023-03-18T23:34:50.956Z,4.29
2023-03-18T23:37:19.022Z,4.33
2023-03-18T23:39:47.099Z,4.24
2023-03-18T23:42:15.141Z,4.22
2023-03-18T23:44:45.198Z,4.20
2023-03-18T23:47:14.723Z,4.09
2023-03-18T23:49:42.388Z,4.01
2023-03-18T23:52:13.730Z,4.02
2023-03-18T23:54:43.354Z,4.07
2023-03-18T23:57:12.049Z,4.06
2023-03-18T23:59:40.088Z,4.03
